createdAt,value
2022-08-22T00:01:27.737Z,19.73
2022-08-22T00:02:45.721Z,21.41
2022-08-22T00:02:52.803Z,22.01
2022-08-22T00:03:07.733Z,20.11
2022-08-22T00:03:15.576Z,20.09
2022-08-22T00:04:37.623Z,19.66
2022-08-22T00:07:47.271Z,19.68
2022-08-22T00:10:57.896Z,19.50
2022-08-22T00:14:07.712Z,19.46
2022-08-22T00:17:32.870Z,19.45
2022-08-22T00:20:42.440Z,19.43
2022-08-22T00:23:49.039Z,19.36
2022-08-22T00:26:57.039Z,19.27
2022-08-22T00:30:06.447Z,19.25
2022-08-22T00:33:22.958Z,19.15
2022-08-22T00:36:31.183Z,19.25
2022-08-22T00:39:40.114Z,19.25
2022-08-22T00:43:00.521Z,19.31
2022-08-22T00:46:27.360Z,19.42
2022-08-22T00:50:07.796Z,19.53
2022-08-22T00:53:28.795Z,19.62
2022-08-22T00:56:51.980Z,19.64
2022-08-22T01:00:07.731Z,19.44
2022-08-22T01:03:35.186Z,19.50
2022-08-22T01:06:53.282Z,19.54
2022-08-22T01:10:14.582Z,19.36
2022-08-22T01:13:30.854Z,19.57
2022-08-22T01:16:55.889Z,19.62
2022-08-22T01:20:35.309Z,19.64
2022-08-22T01:24:37.609Z,19.64
2022-08-22T01:28:19.949Z,19.65
2022-08-22T01:31:59.322Z,19.51
2022-08-22T01:35:30.881Z,19.36
2022-08-22T01:38:58.418Z,19.42
2022-08-22T01:42:30.671Z,19.54
2022-08-22T01:45:59.509Z,19.47
2022-08-22T01:49:12.641Z,19.47
2022-08-22T01:52:21.694Z,19.52
2022-08-22T01:55:32.902Z,19.44
2022-08-22T01:58:44.140Z,19.54
2022-08-22T02:01:59.014Z,19.59
2022-08-22T02:05:07.234Z,19.62
2022-08-22T02:08:23.259Z,19.71
2022-08-22T02:11:40.633Z,19.60
2022-08-22T02:14:54.721Z,19.68
2022-08-22T02:18:12.716Z,19.65
2022-08-22T02:21:21.870Z,19.69
2022-08-22T02:24:37.585Z,19.61
2022-08-22T02:27:52.016Z,19.53
2022-08-22T02:31:05.284Z,19.53
2022-08-22T02:34:26.242Z,19.61
2022-08-22T02:37:38.347Z,19.63
2022-08-22T02:40:52.649Z,19.60
2022-08-22T02:44:00.846Z,19.58
2022-08-22T02:47:11.256Z,19.53
2022-08-22T02:50:20.280Z,19.45
2022-08-22T02:53:37.895Z,19.38
2022-08-22T02:56:47.430Z,19.47
2022-08-22T03:00:31.844Z,19.54
2022-08-22T03:03:40.505Z,19.50
2022-08-22T03:06:47.061Z,19.64
2022-08-22T03:09:59.107Z,19.62
2022-08-22T03:13:10.322Z,19.65
2022-08-22T03:16:22.508Z,19.66
2022-08-22T03:19:31.253Z,19.53
2022-08-22T03:22:41.477Z,19.41
2022-08-22T03:25:52.386Z,19.42
2022-08-22T03:29:04.549Z,19.43
2022-08-22T03:32:19.135Z,19.43
2022-08-22T03:35:36.015Z,19.56
2022-08-22T03:38:49.710Z,19.59
2022-08-22T03:42:33.732Z,19.55
2022-08-22T03:45:57.007Z,19.47
2022-08-22T03:49:28.766Z,19.52
2022-08-22T03:53:15.432Z,19.60
2022-08-22T03:56:44.013Z,19.58
2022-08-22T04:00:14.528Z,19.48
2022-08-22T04:03:50.966Z,19.49
2022-08-22T04:07:32.169Z,19.54
2022-08-22T04:10:56.415Z,19.50
2022-08-22T04:14:38.270Z,19.49
2022-08-22T04:18:03.275Z,19.55
2022-08-22T04:21:42.896Z,19.55
2022-08-22T04:24:55.079Z,19.47
2022-08-22T04:28:06.285Z,19.50
2022-08-22T04:31:12.398Z,19.51
2022-08-22T04:34:19.630Z,19.47
2022-08-22T04:37:31.201Z,19.42
2022-08-22T04:40:39.446Z,19.50
2022-08-22T04:43:48.885Z,19.52
2022-08-22T04:46:57.632Z,19.54
2022-08-22T04:50:05.402Z,19.52
2022-08-22T04:53:27.068Z,19.51
2022-08-22T04:56:39.871Z,19.48
2022-08-22T04:59:43.698Z,19.53
2022-08-22T05:02:49.878Z,19.54
2022-08-22T05:05:56.371Z,19.47
2022-08-22T05:09:16.078Z,19.52
2022-08-22T05:12:26.078Z,19.59
2022-08-22T05:15:37.133Z,19.58
2022-08-22T05:18:46.188Z,19.63
2022-08-22T05:21:50.649Z,19.66
2022-08-22T05:24:57.939Z,19.71
2022-08-22T05:28:10.598Z,19.75
2022-08-22T05:31:23.228Z,19.80
2022-08-22T05:34:32.752Z,19.80
2022-08-22T05:37:42.497Z,19.78
2022-08-22T05:40:55.120Z,19.92
2022-08-22T05:43:57.868Z,20.00
2022-08-22T05:47:03.822Z,19.95
2022-08-22T05:50:12.032Z,20.04
2022-08-22T05:53:22.599Z,20.13
2022-08-22T05:56:36.721Z,20.23
2022-08-22T05:59:43.429Z,20.19
2022-08-22T06:02:55.376Z,20.33
2022-08-22T06:06:03.285Z,19.97
2022-08-22T06:09:09.651Z,20.15
2022-08-22T06:12:22.346Z,20.16
2022-08-22T06:15:31.093Z,19.90
2022-08-22T06:18:38.882Z,20.10
2022-08-22T06:21:44.438Z,20.37
2022-08-22T06:24:49.518Z,20.15
2022-08-22T06:27:54.877Z,20.37
2022-08-22T06:30:59.408Z,20.31
2022-08-22T06:34:09.757Z,20.54
2022-08-22T06:37:18.262Z,20.66
2022-08-22T06:40:21.259Z,20.86
2022-08-22T06:43:26.680Z,20.85
2022-08-22T06:46:32.827Z,20.57
2022-08-22T06:49:38.418Z,20.62
2022-08-22T06:52:53.625Z,20.77
2022-08-22T06:56:02.611Z,20.91
2022-08-22T06:59:13.464Z,20.85
2022-08-22T07:02:25.590Z,20.91
2022-08-22T07:05:30.284Z,20.87
2022-08-22T07:08:39.052Z,20.88
2022-08-22T07:11:43.733Z,21.09
2022-08-22T07:14:50.461Z,21.25
2022-08-22T07:17:59.168Z,21.47
2022-08-22T07:21:04.716Z,21.52
2022-08-22T07:24:08.610Z,21.65
2022-08-22T07:27:23.111Z,21.93
2022-08-22T07:30:39.283Z,22.27
2022-08-22T07:33:46.415Z,22.64
2022-08-22T07:36:51.485Z,22.88
2022-08-22T07:39:59.007Z,22.59
2022-08-22T07:43:10.288Z,22.44
2022-08-22T07:46:24.766Z,22.55
2022-08-22T07:49:33.327Z,22.68
2022-08-22T07:52:42.760Z,22.58
2022-08-22T07:55:49.712Z,22.55
2022-08-22T07:58:56.884Z,22.37
2022-08-22T08:02:06.036Z,22.39
2022-08-22T08:05:10.144Z,22.36
2022-08-22T08:08:20.834Z,22.42
2022-08-22T08:11:26.297Z,22.71
2022-08-22T08:14:30.754Z,22.76
2022-08-22T08:17:36.410Z,23.08
2022-08-22T08:20:39.501Z,23.39
2022-08-22T08:23:46.928Z,23.49
2022-08-22T08:27:12.020Z,23.65
2022-08-22T08:30:17.569Z,23.39
2022-08-22T08:33:26.685Z,23.65
2022-08-22T08:36:38.506Z,23.85
2022-08-22T08:39:48.445Z,24.48
2022-08-22T08:43:24.181Z,24.58
2022-08-22T08:46:55.159Z,24.81
2022-08-22T08:50:33.966Z,25.09
2022-08-22T08:54:04.549Z,25.04
2022-08-22T08:57:15.818Z,25.48
2022-08-22T09:00:27.230Z,25.34
2022-08-22T09:03:59.731Z,25.56
2022-08-22T09:07:38.856Z,26.57
2022-08-22T09:11:09.561Z,26.52
2022-08-22T09:14:23.821Z,26.59
2022-08-22T09:18:01.036Z,26.91
2022-08-22T09:21:53.295Z,27.09
2022-08-22T09:25:16.881Z,26.56
2022-08-22T09:28:28.352Z,26.83
2022-08-22T09:31:48.371Z,25.99
2022-08-22T09:35:05.715Z,25.78
2022-08-22T09:38:29.098Z,26.01
2022-08-22T09:41:39.853Z,25.63
2022-08-22T09:44:57.773Z,25.51
2022-08-22T09:48:07.488Z,25.25
2022-08-22T09:51:32.165Z,26.18
2022-08-22T09:54:40.202Z,27.35
2022-08-22T09:57:53.331Z,28.32
2022-08-22T10:01:00.598Z,28.30
2022-08-22T10:04:38.434Z,27.60
2022-08-22T10:08:14.347Z,27.61
2022-08-22T10:11:27.049Z,29.23
2022-08-22T10:14:50.480Z,29.54
2022-08-22T10:18:04.976Z,30.03
2022-08-22T10:21:12.626Z,30.25
2022-08-22T10:24:25.421Z,29.68
2022-08-22T10:27:54.065Z,29.65
2022-08-22T10:31:11.440Z,29.15
2022-08-22T10:34:20.200Z,28.35
2022-08-22T10:37:33.265Z,29.65
2022-08-22T10:40:40.705Z,30.41
2022-08-22T10:43:56.442Z,29.27
2022-08-22T10:47:08.960Z,28.96
2022-08-22T10:50:20.099Z,28.81
2022-08-22T10:53:34.859Z,28.08
2022-08-22T10:56:43.728Z,27.51
2022-08-22T10:59:50.184Z,26.91
2022-08-22T11:03:10.968Z,26.78
2022-08-22T11:06:25.186Z,27.36
2022-08-22T11:09:36.914Z,28.07
2022-08-22T11:12:46.633Z,28.25
2022-08-22T11:16:01.328Z,28.37
2022-08-22T11:19:25.564Z,28.03
2022-08-22T11:22:34.615Z,27.52
2022-08-22T11:25:52.610Z,27.37
2022-08-22T11:29:14.073Z,27.92
2022-08-22T11:32:23.983Z,28.03
2022-08-22T11:35:36.316Z,29.11
2022-08-22T11:38:50.176Z,29.89
2022-08-22T11:42:02.619Z,30.33
2022-08-22T11:45:07.864Z,30.15
2022-08-22T11:48:19.843Z,29.52
2022-08-22T11:51:46.020Z,29.13
2022-08-22T11:55:21.564Z,30.14
2022-08-22T11:58:32.757Z,31.49
2022-08-22T12:01:42.016Z,31.73
2022-08-22T12:04:48.802Z,30.83
2022-08-22T12:07:57.654Z,29.92
2022-08-22T12:11:08.666Z,30.16
2022-08-22T12:14:27.094Z,31.03
2022-08-22T12:18:01.255Z,31.52
2022-08-22T12:21:44.735Z,32.03
2022-08-22T12:25:04.206Z,32.69
2022-08-22T12:28:20.420Z,32.84
2022-08-22T12:31:35.798Z,32.91
2022-08-22T12:34:47.782Z,33.27
2022-08-22T12:37:59.715Z,32.94
2022-08-22T12:41:35.232Z,32.97
2022-08-22T12:44:52.852Z,32.02
2022-08-22T12:48:10.496Z,32.48
2022-08-22T12:51:26.819Z,32.80
2022-08-22T12:55:01.106Z,32.59
2022-08-22T12:58:14.558Z,32.57
2022-08-22T13:01:23.268Z,33.11
2022-08-22T13:04:44.110Z,34.02
2022-08-22T13:07:52.742Z,32.85
2022-08-22T13:11:01.152Z,31.81
2022-08-22T13:14:05.990Z,31.50
2022-08-22T13:17:24.183Z,31.09
2022-08-22T13:20:32.085Z,30.25
2022-08-22T13:23:41.989Z,30.08
2022-08-22T13:26:49.358Z,29.70
2022-08-22T13:29:57.189Z,29.34
2022-08-22T13:33:05.496Z,29.56
2022-08-22T13:36:16.668Z,30.14
2022-08-22T13:39:27.815Z,30.39
2022-08-22T13:42:34.068Z,30.69
2022-08-22T13:45:54.093Z,30.86
2022-08-22T13:49:01.297Z,30.45
2022-08-22T13:52:28.908Z,30.27
2022-08-22T13:55:38.119Z,29.70
2022-08-22T13:58:49.842Z,30.07
2022-08-22T14:02:04.233Z,30.17
2022-08-22T14:05:12.230Z,29.82
2022-08-22T14:08:19.606Z,29.95
2022-08-22T14:11:29.683Z,29.81
2022-08-22T14:14:36.199Z,29.71
2022-08-22T14:17:44.566Z,29.88
2022-08-22T14:20:51.302Z,29.50
2022-08-22T14:23:56.854Z,29.33
2022-08-22T14:27:05.169Z,29.45
2022-08-22T14:30:15.838Z,28.81
2022-08-22T14:33:22.941Z,28.81
2022-08-22T14:36:30.950Z,28.75
2022-08-22T14:39:37.826Z,28.47
2022-08-22T14:42:50.465Z,28.34
2022-08-22T14:46:02.174Z,28.35
2022-08-22T14:49:26.890Z,28.51
2022-08-22T14:52:36.704Z,28.06
2022-08-22T14:55:43.160Z,27.86
2022-08-22T14:58:50.426Z,27.24
2022-08-22T15:01:57.941Z,27.46
2022-08-22T15:05:13.467Z,27.31
2022-08-22T15:08:24.855Z,27.39
2022-08-22T15:11:32.235Z,27.08
2022-08-22T15:14:52.157Z,27.31
2022-08-22T15:17:56.618Z,27.10
2022-08-22T15:21:06.899Z,26.89
2022-08-22T15:24:14.813Z,26.75
2022-08-22T15:27:20.282Z,26.61
2022-08-22T15:30:44.267Z,26.39
2022-08-22T15:33:48.377Z,26.24
2022-08-22T15:37:09.142Z,26.37
2022-08-22T15:40:28.378Z,26.34
2022-08-22T15:43:35.599Z,26.15
2022-08-22T15:46:41.479Z,26.11
2022-08-22T15:49:51.982Z,25.73
2022-08-22T15:53:20.848Z,25.94
2022-08-22T15:56:28.057Z,25.85
2022-08-22T15:59:54.233Z,25.90
2022-08-22T16:03:02.242Z,25.62
2022-08-22T16:06:07.907Z,25.80
2022-08-22T16:09:32.394Z,26.06
2022-08-22T16:12:39.414Z,26.06
2022-08-22T16:16:11.463Z,25.99
2022-08-22T16:19:21.139Z,25.91
2022-08-22T16:23:07.470Z,26.01
2022-08-22T16:26:15.121Z,26.02
2022-08-22T16:29:35.522Z,25.88
2022-08-22T16:32:56.457Z,25.64
2022-08-22T16:36:43.460Z,25.77
2022-08-22T16:39:49.357Z,25.63
2022-08-22T16:43:11.808Z,25.57
2022-08-22T16:46:33.243Z,25.47
2022-08-22T16:49:56.975Z,25.39
2022-08-22T16:53:09.315Z,25.34
2022-08-22T16:56:25.882Z,25.46
2022-08-22T16:59:54.501Z,25.03
2022-08-22T17:03:11.043Z,25.22
2022-08-22T17:06:32.000Z,25.19
2022-08-22T17:10:01.697Z,25.02
2022-08-22T17:13:18.172Z,24.98
2022-08-22T17:16:36.787Z,24.89
2022-08-22T17:19:52.736Z,24.84
2022-08-22T17:23:08.366Z,24.73
2022-08-22T17:26:20.757Z,24.73
2022-08-22T17:29:39.115Z,24.67
2022-08-22T17:33:07.133Z,24.59
2022-08-22T17:36:26.880Z,24.50
2022-08-22T17:39:47.514Z,24.51
2022-08-22T17:43:08.614Z,24.31
2022-08-22T17:46:27.775Z,24.27
2022-08-22T17:49:52.168Z,24.19
2022-08-22T17:53:00.322Z,24.14
2022-08-22T17:56:15.431Z,24.11
2022-08-22T17:59:22.447Z,24.07
2022-08-22T18:02:32.765Z,23.99
2022-08-22T18:05:47.326Z,23.84
2022-08-22T18:12:31.111Z,23.66
2022-08-22T18:15:44.143Z,23.56
2022-08-22T18:18:52.254Z,23.49
2022-08-22T18:22:03.387Z,23.44
2022-08-22T18:25:11.940Z,23.40
2022-08-22T18:28:26.432Z,23.46
2022-08-22T18:31:48.030Z,23.31
2022-08-22T18:34:57.183Z,23.28
2022-08-22T18:38:19.755Z,23.29
2022-08-22T18:41:31.458Z,23.17
2022-08-22T18:44:37.385Z,23.11
2022-08-22T18:47:39.996Z,23.20
2022-08-22T18:50:42.736Z,23.21
2022-08-22T18:53:50.010Z,23.22
2022-08-22T18:56:59.549Z,23.11
2022-08-22T19:00:10.237Z,23.04
2022-08-22T19:03:27.145Z,23.07
2022-08-22T19:06:51.787Z,23.03
2022-08-22T19:10:16.337Z,22.86
2022-08-22T19:13:48.367Z,22.73
2022-08-22T19:17:20.794Z,22.87
2022-08-22T19:20:45.277Z,22.83
2022-08-22T19:23:51.083Z,22.56
2022-08-22T19:27:30.930Z,22.54
2022-08-22T19:30:44.365Z,22.52
2022-08-22T19:33:49.974Z,22.57
2022-08-22T19:37:33.106Z,22.32
2022-08-22T19:40:53.371Z,22.46
2022-08-22T19:43:57.358Z,22.38
2022-08-22T19:47:06.618Z,22.47
2022-08-22T19:50:24.405Z,22.39
2022-08-22T19:53:38.216Z,22.45
2022-08-22T19:57:02.785Z,22.49
2022-08-22T20:00:12.696Z,22.53
2022-08-22T20:03:21.033Z,22.46
2022-08-22T20:06:44.041Z,22.33
2022-08-22T20:09:57.982Z,22.53
2022-08-22T20:13:08.372Z,22.54
2022-08-22T20:16:17.782Z,22.54
2022-08-22T20:19:21.869Z,22.53
2022-08-22T20:22:27.580Z,22.69
2022-08-22T20:25:42.085Z,22.65
2022-08-22T20:28:48.791Z,22.59
2022-08-22T20:31:58.057Z,22.65
2022-08-22T20:35:03.969Z,22.74
2022-08-22T20:38:09.794Z,22.81
2022-08-22T20:41:21.327Z,22.84
2022-08-22T20:44:29.506Z,22.76
2022-08-22T20:47:41.358Z,22.67
2022-08-22T20:50:45.656Z,22.47
2022-08-22T20:53:53.210Z,22.57
2022-08-22T20:56:57.956Z,22.66
2022-08-22T21:00:09.382Z,22.58
2022-08-22T21:03:21.840Z,22.59
2022-08-22T21:06:31.705Z,22.49
2022-08-22T21:09:48.213Z,22.56
2022-08-22T21:13:19.587Z,22.73
2022-08-22T21:16:31.170Z,22.42
2022-08-22T21:19:35.430Z,22.33
2022-08-22T21:22:38.030Z,22.64
2022-08-22T21:25:55.013Z,22.67
2022-08-22T21:29:02.718Z,22.50
2022-08-22T21:32:17.818Z,22.39
2022-08-22T21:35:26.754Z,22.40
2022-08-22T21:38:29.597Z,22.18
2022-08-22T21:41:36.931Z,22.36
2022-08-22T21:44:41.461Z,22.52
2022-08-22T21:47:45.469Z,22.15
2022-08-22T21:50:49.642Z,21.98
2022-08-22T21:54:16.069Z,22.16
2022-08-22T21:57:19.658Z,22.13
2022-08-22T22:00:49.638Z,22.33
2022-08-22T22:03:52.753Z,22.25
2022-08-22T22:06:56.667Z,22.13
2022-08-22T22:10:00.140Z,22.04
2022-08-22T22:13:03.212Z,21.99
2022-08-22T22:16:07.532Z,22.07
2022-08-22T22:19:10.483Z,22.01
2022-08-22T22:22:15.135Z,21.97
2022-08-22T22:25:40.947Z,21.86
2022-08-22T22:28:47.732Z,22.15
2022-08-22T22:31:50.359Z,21.97
2022-08-22T22:34:52.957Z,21.88
2022-08-22T22:37:57.089Z,22.00
2022-08-22T22:40:59.718Z,21.91
2022-08-22T22:44:03.986Z,21.60
2022-08-22T22:47:06.839Z,21.46
2022-08-22T22:50:09.918Z,21.48
2022-08-22T22:53:19.444Z,21.04
2022-08-22T22:56:23.986Z,21.42
2022-08-22T22:59:27.157Z,21.61
2022-08-22T23:02:29.758Z,21.32
2022-08-22T23:05:33.845Z,21.32
2022-08-22T23:08:37.787Z,21.50
2022-08-22T23:11:40.386Z,21.42
2022-08-22T23:14:43.082Z,21.41
2022-08-22T23:17:45.730Z,21.39
2022-08-22T23:20:48.347Z,21.49
2022-08-22T23:23:52.926Z,21.23
2022-08-22T23:26:56.485Z,21.17
2022-08-22T23:29:59.173Z,21.18
2022-08-22T23:33:01.788Z,21.25
2022-08-22T23:36:11.013Z,21.08
2022-08-22T23:39:16.513Z,21.14
2022-08-22T23:42:19.406Z,20.99
2022-08-22T23:45:22.210Z,20.98
2022-08-22T23:48:24.866Z,21.29
2022-08-22T23:51:28.221Z,20.98
2022-08-22T23:54:32.262Z,21.20
2022-08-22T23:57:34.889Z,21.20
